Time;durP1;ratioP1;P1;durP2;ratioP2;P2;SDS_P1;SDS_P2;PMS_P1;PMS_P2;Temp;Humidity;BMP_temperature;BMP_pressure;BME280_temperature;BME280_humidity;BME280_pressure;Samples;Min_cycle;Max_cycle;Signal;HPM_P1;HPM_P2
2023/10/20 00:01:34;;;;;;;0.40;0.20;;;;;;;;;;5050562;28;20024;-84
2023/10/20 00:04:03;;;;;;;0.30;0.30;;;;;;;;;;5051215;28;20674;-83
2023/10/20 00:06:29;;;;;;;0.75;0.30;;;;;;;;;;5053040;28;20493;-84
2023/10/20 00:08:55;;;;;;;0.60;0.28;;;;;;;;;;5053039;28;20028;-84
2023/10/20 00:11:22;;;;;;;0.20;0.20;;;;;;;;;;5052754;28;20017;-84
2023/10/20 00:13:48;;;;;;;0.68;0.25;;;;;;;;;;5052610;28;20496;-84
2023/10/20 00:16:14;;;;;;;0.20;0.20;;;;;;;;;;5051598;28;20383;-84
2023/10/20 00:18:40;;;;;;;0.20;0.20;;;;;;;;;;5051324;28;20032;-85
2023/10/20 00:21:06;;;;;;;0.20;0.20;;;;;;;;;;5052356;28;20021;-84
2023/10/20 00:23:32;;;;;;;0.30;0.20;;;;;;;;;;5052369;28;20448;-84
2023/10/20 00:25:58;;;;;;;0.35;0.20;;;;;;;;;;5050782;28;20025;-83
2023/10/20 00:28:24;;;;;;;0.43;0.25;;;;;;;;;;5051998;28;20033;-84
2023/10/20 00:30:50;;;;;;;0.20;0.20;;;;;;;;;;5051760;28;20024;-85
2023/10/20 00:33:16;;;;;;;0.20;0.20;;;;;;;;;;5051894;28;20053;-84
2023/10/20 00:35:42;;;;;;;0.30;0.30;;;;;;;;;;5050789;28;20033;-85
2023/10/20 00:38:09;;;;;;;0.28;0.28;;;;;;;;;;5052402;28;20024;-84
2023/10/20 00:40:35;;;;;;;0.52;0.20;;;;;;;;;;5050468;28;20024;-85
2023/10/20 00:43:01;;;;;;;1.95;0.25;;;;;;;;;;5052146;28;20029;-86
2023/10/20 00:45:27;;;;;;;0.25;0.17;;;;;;;;;;5051917;28;20027;-86
2023/10/20 00:47:53;;;;;;;0.22;0.20;;;;;;;;;;5052661;28;20541;-86
2023/10/20 00:50:19;;;;;;;3.63;0.30;;;;;;;;;;5042401;28;20029;-85
2023/10/20 00:52:52;;;;;;;0.75;0.20;;;18.00;99.90;;;;;;5050985;28;20024;-85
2023/10/20 00:55:20;;;;;;;0.20;0.20;;;17.80;99.90;;;;;;5046543;28;20033;-85
2023/10/20 00:57:46;;;;;;;0.20;0.20;;;;;;;;;;5050893;28;20033;-86
2023/10/20 01:00:13;;;;;;;2.95;1.30;;;;;;;;;;5051654;28;20390;-86
2023/10/20 01:02:40;;;;;;;1.23;0.60;;;;;;;;;;5052395;28;20029;-83
2023/10/20 01:05:06;;;;;;;0.35;0.20;;;17.40;99.90;;;;;;5044371;28;20025;-85
2023/10/20 01:07:33;;;;;;;5.90;1.55;;;;;;;;;;5045185;28;20056;-86
2023/10/20 01:10:05;;;;;;;0.20;0.20;;;17.30;99.90;;;;;;5052499;28;20021;-86
2023/10/20 01:12:32;;;;;;;0.32;0.30;;;;;;;;;;5050355;28;20029;-86
2023/10/20 01:14:59;;;;;;;1.17;0.30;;;;;;;;;;5051294;28;20045;-86
2023/10/20 01:17:26;;;;;;;0.20;0.20;;;17.10;99.90;;;;;;5051908;28;20460;-85
2023/10/20 01:19:52;;;;;;;0.90;0.35;;;;;;;;;;5050492;28;20103;-86
2023/10/20 01:22:18;;;;;;;1.13;1.02;;;;;;;;;;5051439;28;20112;-85
2023/10/20 01:24:44;;;;;;;0.20;0.20;;;;;;;;;;5049901;28;20460;-86
2023/10/20 01:27:10;;;;;;;2.33;0.40;;;;;;;;;;5050666;28;20074;-87
2023/10/20 01:29:36;;;;;;;0.85;0.63;;;;;;;;;;5049744;28;20398;-86
2023/10/20 01:32:03;;;;;;;0.93;0.60;;;;;;;;;;5050879;28;20053;-86
2023/10/20 01:34:29;;;;;;;1.17;0.80;;;;;;;;;;5061352;28;20028;-87
2023/10/20 01:36:55;;;;;;;0.70;0.57;;;;;;;;;;5051670;28;20028;-87
2023/10/20 01:39:21;;;;;;;0.30;0.30;;;;;;;;;;5051022;28;20471;-87
2023/10/20 01:41:47;;;;;;;0.95;0.28;;;;;;;;;;5051214;28;20017;-87
2023/10/20 01:44:13;;;;;;;0.35;0.35;;;;;;;;;;5052818;28;20025;-87
2023/10/20 01:46:39;;;;;;;3.83;0.52;;;;;;;;;;5056780;28;20031;-85
2023/10/20 01:49:05;;;;;;;0.52;0.40;;;;;;;;;;5058406;28;20021;-87
2023/10/20 01:51:34;;;;;;;0.20;0.20;;;;;;;;;;5049061;28;20036;-85
2023/10/20 01:54:00;;;;;;;0.20;0.20;;;;;;;;;;5049518;28;20464;-86
2023/10/20 01:56:26;;;;;;;0.22;0.22;;;;;;;;;;5063874;28;20029;-85
2023/10/20 01:58:52;;;;;;;2.25;0.30;;;;;;;;;;5050087;28;20029;-85
2023/10/20 02:01:19;;;;;;;0.80;0.40;;;;;;;;;;5050651;28;20025;-86
2023/10/20 02:03:47;;;;;;;0.22;0.20;;;;;;;;;;5050915;28;20081;-86
2023/10/20 02:06:13;;;;;;;0.28;0.28;;;;;;;;;;5050393;28;20024;-86
2023/10/20 02:08:39;;;;;;;0.20;0.20;;;;;;;;;;5050688;28;20060;-86
2023/10/20 02:11:05;;;;;;;0.20;0.20;;;;;;;;;;5050212;28;20103;-86
2023/10/20 02:13:32;;;;;;;0.30;0.30;;;;;;;;;;5051006;28;20475;-86
2023/10/20 02:15:59;;;;;;;0.30;0.30;;;;;;;;;;5050025;28;20464;-85
2023/10/20 02:18:25;;;;;;;0.22;0.22;;;;;;;;;;5050857;28;20079;-86
2023/10/20 02:21:09;;;;;;;3.05;0.40;;;16.00;99.90;;;;;;5049933;28;20448;-86
2023/10/20 02:23:36;;;;;;;0.65;0.60;;;16.10;99.90;;;;;;5050446;28;20056;-86
2023/10/20 02:26:06;;;;;;;1.02;0.90;;;16.10;99.90;;;;;;5050322;28;20453;-86
2023/10/20 02:28:36;;;;;;;1.05;0.80;;;16.10;99.90;;;;;;5050417;28;20028;-87
2023/10/20 02:31:14;;;;;;;0.57;0.57;;;16.00;99.90;;;;;;5048877;28;20409;-86
2023/10/20 02:33:40;;;;;;;2.03;1.27;;;;;;;;;;5050816;28;20448;-86
2023/10/20 02:36:06;;;;;;;2.10;0.98;;;;;;;;;;5050639;28;20409;-85
2023/10/20 02:38:32;;;;;;;1.13;0.57;;;;;;;;;;5049635;28;20591;-86
2023/10/20 02:40:58;;;;;;;1.02;0.95;;;;;;;;;;5050444;28;20080;-87
2023/10/20 02:43:24;;;;;;;1.00;0.57;;;;;;;;;;5049694;28;20021;-87
2023/10/20 02:45:57;;;;;;;0.40;0.40;;;15.80;99.90;;;;;;5049876;28;20025;-86
2023/10/20 02:48:23;;;;;;;0.77;0.68;;;16.00;99.90;;;;;;5049162;28;20032;-86
2023/10/20 02:50:49;;;;;;;0.63;0.60;;;;;;;;;;5050329;28;20032;-85
2023/10/20 02:53:16;;;;;;;0.50;0.40;;;;;;;;;;5048770;28;20394;-86
2023/10/20 02:55:42;;;;;;;1.88;0.30;;;;;;;;;;5049674;28;20048;-86
2023/10/20 02:58:12;;;;;;;2.95;0.70;;;16.00;99.90;;;;;;5048759;28;20021;-86
2023/10/20 03:00:45;;;;;;;2.50;1.60;;;16.00;99.90;;;;;;5049507;28;20077;-86
2023/10/20 03:03:12;;;;;;;2.17;0.80;;;16.00;99.90;;;;;;5049698;28;20435;-86
2023/10/20 03:05:38;;;;;;;0.35;0.30;;;;;;;;;;5049560;28;20119;-85
2023/10/20 03:08:05;;;;;;;2.15;0.55;;;16.00;99.90;;;;;;5049843;28;20123;-85
2023/10/20 03:10:31;;;;;;;0.67;0.50;;;;;;;;;;5049641;28;20033;-85
2023/10/20 03:12:57;;;;;;;0.40;0.40;;;;;;;;;;5050232;28;20274;-85
2023/10/20 03:15:23;;;;;;;1.98;0.47;;;;;;;;;;5049827;28;20051;-85
2023/10/20 03:17:49;;;;;;;1.25;0.68;;;;;;;;;;5049647;28;20049;-85
2023/10/20 03:20:17;;;;;;;0.90;0.65;;;;;;;;;;5049231;28;20278;-85
2023/10/20 03:22:43;;;;;;;0.75;0.45;;;;;;;;;;5039318;28;20124;-85
2023/10/20 03:25:10;;;;;;;2.70;0.50;;;16.10;99.90;;;;;;5045642;28;20032;-85
2023/10/20 03:27:37;;;;;;;1.07;0.60;;;;;;;;;;5058086;28;20025;-86
2023/10/20 03:30:05;;;;;;;0.30;0.30;;;16.10;99.90;;;;;;5063016;28;20029;-85
2023/10/20 03:32:31;;;;;;;0.45;0.43;;;;;;;;;;5049469;28;20465;-85
2023/10/20 03:34:57;;;;;;;0.20;0.20;;;;;;;;;;5048613;28;20033;-85
2023/10/20 03:37:23;;;;;;;0.40;0.30;;;;;;;;;;5061610;28;20487;-85
2023/10/20 03:39:50;;;;;;;0.60;0.55;;;;;;;;;;5056237;28;20025;-86
2023/10/20 03:42:16;;;;;;;1.40;0.70;;;;;;;;;;5056332;28;20060;-85
2023/10/20 03:44:43;;;;;;;4.00;0.88;;;;;;;;;;5052826;28;20036;-86
2023/10/20 03:47:09;;;;;;;1.00;0.68;;;;;;;;;;5053388;28;20013;-85
2023/10/20 03:49:35;;;;;;;0.43;0.32;;;;;;;;;;5052908;28;20029;-85
2023/10/20 03:52:06;;;;;;;0.30;0.30;;;15.70;99.90;;;;;;5051542;28;20043;-85
2023/10/20 03:54:34;;;;;;;0.80;0.35;;;;;;;;;;5053588;28;20489;-85
2023/10/20 03:57:00;;;;;;;0.45;0.40;;;;;;;;;;5053266;28;20041;-86
2023/10/20 03:59:26;;;;;;;0.25;0.25;;;;;;;;;;5052909;28;20092;-86
2023/10/20 04:01:52;;;;;;;0.20;0.20;;;;;;;;;;5053569;28;20075;-85
2023/10/20 04:04:18;;;;;;;1.30;0.30;;;;;;;;;;5053135;28;20029;-86
2023/10/20 04:06:45;;;;;;;2.03;0.28;;;;;;;;;;5052705;28;20053;-85
2023/10/20 04:09:14;;;;;;;2.20;0.82;;;;;;;;;;5053437;28;20055;-85
2023/10/20 04:11:40;;;;;;;3.92;0.88;;;;;;;;;;5052714;28;20028;-84
2023/10/20 04:14:06;;;;;;;1.17;0.35;;;;;;;;;;5056801;28;20028;-85
2023/10/20 04:16:41;;;;;;;0.70;0.65;;;15.70;99.90;;;;;;5061887;28;20079;-85
2023/10/20 04:19:12;;;;;;;0.73;0.45;;;;;;;;;;5052680;28;20021;-86
2023/10/20 04:21:39;;;;;;;0.47;0.45;;;15.70;99.90;;;;;;5065829;28;20037;-86
2023/10/20 04:24:09;;;;;;;1.00;0.50;;;15.70;99.90;;;;;;5052751;28;20096;-85
2023/10/20 04:26:41;;;;;;;1.10;0.40;;;15.70;99.90;;;;;;5050819;28;20029;-85
2023/10/20 05:01:16;;;;;;;0.30;0.30;;;;;;;;;;5047960;28;20032;-86
2023/10/20 05:03:45;;;;;;;0.50;0.30;;;;;;;;;;5045328;28;20457;-86
2023/10/20 05:06:26;;;;;;;0.40;0.40;;;15.50;99.90;;;;;;5052021;28;20025;-86
2023/10/20 05:08:52;;;;;;;0.35;0.32;;;;;;;;;;5050539;28;20028;-85
2023/10/20 05:11:19;;;;;;;0.73;0.68;;;;;;;;;;5053299;28;20107;-86
2023/10/20 05:13:45;;;;;;;0.60;0.45;;;;;;;;;;5051726;28;20028;-85
2023/10/20 05:16:12;;;;;;;0.38;0.35;;;;;;;;;;5046780;28;20115;-86
2023/10/20 05:18:39;;;;;;;0.40;0.40;;;15.40;99.90;;;;;;5051338;28;20137;-85
2023/10/20 05:21:09;;;;;;;0.90;0.77;;;15.40;99.90;;;;;;5046397;28;20119;-86
2023/10/20 05:23:36;;;;;;;14.00;0.82;;;;;;;;;;5043378;28;20087;-85
2023/10/20 05:26:02;;;;;;;0.38;0.30;;;;;;;;;;5038769;28;20483;-87
2023/10/20 05:28:29;;;;;;;0.98;0.50;;;15.40;99.90;;;;;;5049725;28;20021;-86
2023/10/20 05:30:55;;;;;;;3.50;0.85;;;;;;;;;;5048976;28;20038;-87
2023/10/20 05:33:22;;;;;;;0.35;0.28;;;;;;;;;;5049954;28;20577;-86
2023/10/20 05:35:48;;;;;;;0.22;0.22;;;;;;;;;;5051548;28;20045;-85
2023/10/20 05:38:14;;;;;;;0.30;0.30;;;;;;;;;;5046711;28;20017;-89
2023/10/20 05:40:40;;;;;;;0.32;0.28;;;;;;;;;;5045269;28;20267;-87
2023/10/20 05:43:06;;;;;;;2.33;0.30;;;;;;;;;;5034974;28;20525;-86
2023/10/20 05:45:39;;;;;;;0.85;0.30;;;15.00;99.90;;;;;;5056541;28;20048;-88
2023/10/20 05:48:08;;;;;;;0.50;0.50;;;;;;;;;;5056750;28;20615;-86
2023/10/20 05:50:36;;;;;;;0.45;0.30;;;15.10;99.90;;;;;;5041526;28;20052;-86
2023/10/20 05:53:02;;;;;;;1.88;0.60;;;;;;;;;;5034750;28;20633;-87
2023/10/20 05:55:28;;;;;;;0.30;0.30;;;;;;;;;;5049420;28;20397;-84
2023/10/20 05:57:54;;;;;;;0.35;0.35;;;;;;;;;;5058540;28;20021;-82
2023/10/20 06:00:20;;;;;;;0.77;0.50;;;;;;;;;;5046709;28;20037;-80
2023/10/20 06:02:47;;;;;;;1.13;0.50;;;;;;;;;;5043244;28;20033;-81
2023/10/20 06:05:16;;;;;;;0.95;0.75;;;;;;;;;;5032988;28;20044;-82
2023/10/20 06:07:43;;;;;;;0.38;0.38;;;15.10;99.90;;;;;;5055073;28;20048;-81
2023/10/20 06:10:11;;;;;;;0.50;0.50;;;;;;;;;;5049151;28;20025;-82
2023/10/20 06:12:38;;;;;;;1.30;1.10;;;;;;;;;;5041996;28;20517;-82
2023/10/20 06:15:09;;;;;;;1.33;1.00;;;19.50;99.90;;;;;;4757482;28;20430;-83
2023/10/20 06:17:35;;;;;;;0.80;0.80;;;;;;;;;;5051051;28;20037;-89
2023/10/20 06:20:06;;;;;;;1.00;0.93;;;15.20;99.90;;;;;;5050146;28;20159;-89
2023/10/20 06:22:32;;;;;;;0.77;0.50;;;;;;;;;;5037486;28;20028;-88
2023/10/20 06:24:59;;;;;;;0.70;0.40;;;;;;;;;;5060096;28;20049;-89
2023/10/20 06:27:25;;;;;;;1.85;0.40;;;;;;;;;;5053993;28;20486;-89
2023/10/20 06:29:59;;;;;;;0.93;0.43;;;15.30;99.90;;;;;;5059229;28;20564;-89
2023/10/20 06:32:32;;;;;;;0.35;0.35;;;;;;;;;;5054031;28;20455;-90
2023/10/20 06:35:02;;;;;;;1.38;0.60;;;;;;;;;;5050233;28;20033;-91
2023/10/20 06:37:38;;;;;;;0.50;0.50;;;;;;;;;;5050415;28;20045;-90
2023/10/20 06:40:05;;;;;;;0.30;0.30;;;15.40;99.90;;;;;;5052107;28;20023;-90
2023/10/20 06:42:31;;;;;;;0.60;0.40;;;;;;;;;;5047559;28;20031;-82
2023/10/20 06:44:56;;;;;;;0.43;0.43;;;15.50;99.90;;;;;;5047418;28;20019;-81
2023/10/20 06:47:22;;;;;;;0.40;0.40;;;;;;;;;;5050373;28;20029;-81
2023/10/20 06:49:48;;;;;;;0.40;0.40;;;;;;;;;;5044881;28;20363;-81
2023/10/20 06:52:18;;;;;;;0.63;0.30;;;;;;;;;;5045253;28;20102;-81
2023/10/20 06:54:45;;;;;;;0.47;0.40;;;15.30;99.90;;;;;;5048143;28;20119;-81
2023/10/20 06:57:11;;;;;;;0.40;0.40;;;;;;;;;;5046050;28;20059;-81
2023/10/20 06:59:37;;;;;;;0.52;0.28;;;;;;;;;;5040671;28;20106;-81
2023/10/20 07:02:03;;;;;;;1.42;1.33;;;;;;;;;;5043775;28;20041;-81
2023/10/20 07:04:31;;;;;;;2.55;0.50;;;;;;;;;;5053318;28;20027;-82
2023/10/20 07:06:57;;;;;;;1.55;0.52;;;;;;;;;;5048120;28;20036;-81
2023/10/20 07:09:23;;;;;;;0.88;0.57;;;;;;;;;;5053370;28;20096;-81
2023/10/20 07:11:49;;;;;;;0.45;0.45;;;;;;;;;;5056351;28;20020;-81
2023/10/20 07:14:16;;;;;;;0.55;0.40;;;;;;;;;;5042190;28;20032;-82
2023/10/20 07:16:42;;;;;;;0.30;0.30;;;;;;;;;;5048367;28;20044;-81
2023/10/20 07:19:08;;;;;;;0.30;0.30;;;;;;;;;;5045293;28;20048;-82
2023/10/20 07:21:35;;;;;;;0.35;0.35;;;15.80;99.90;;;;;;5050122;28;20044;-82
2023/10/20 07:24:03;;;;;;;0.50;0.50;;;;;;;;;;5041441;28;20032;-82
2023/10/20 07:26:29;;;;;;;0.63;0.40;;;15.80;99.90;;;;;;5047130;28;20025;-82
2023/10/20 07:28:55;;;;;;;0.50;0.50;;;16.10;99.90;;;;;;5044539;28;20877;-82
2023/10/20 07:31:21;;;;;;;0.30;0.30;;;;;;;;;;5042737;28;20155;-82
2023/10/20 07:33:50;;;;;;;0.45;0.45;;;15.40;99.90;;;;;;5046500;28;20039;-83
2023/10/20 07:36:17;;;;;;;0.20;0.20;;;;;;;;;;5036736;28;20045;-82
2023/10/20 07:38:43;;;;;;;0.40;0.40;;;;;;;;;;5058361;28;20052;-83
2023/10/20 07:41:11;;;;;;;0.30;0.30;;;15.40;99.90;;;;;;5050871;28;20040;-82
2023/10/20 07:43:38;;;;;;;0.30;0.30;;;;;;;;;;5041340;28;20521;-82
2023/10/20 07:46:05;;;;;;;0.30;0.30;;;;;;;;;;5046098;28;20417;-82
2023/10/20 07:48:32;;;;;;;0.23;0.23;;;15.30;99.90;;;;;;5053391;28;20309;-82
2023/10/20 07:51:01;;;;;;;1.10;0.30;;;;;;;;;;5041027;28;20275;-82
2023/10/20 07:53:29;;;;;;;1.27;0.30;;;;;;;;;;5046927;28;20040;-82
2023/10/20 07:55:55;;;;;;;0.50;0.28;;;;;;;;;;5044237;28;20041;-82
2023/10/20 07:58:21;;;;;;;1.23;0.52;;;;;;;;;;5052719;28;20028;-82
2023/10/20 08:00:47;;;;;;;0.35;0.35;;;;;;;;;;5047482;28;20061;-83
2023/10/20 08:03:13;;;;;;;2.25;1.38;;;;;;;;;;5040275;28;20552;-82
2023/10/20 08:05:40;;;;;;;1.20;0.82;;;15.30;99.90;;;;;;5043434;28;20032;-82
2023/10/20 08:08:06;;;;;;;0.50;0.50;;;16.00;99.90;;;;;;5042271;28;20398;-79
2023/10/20 08:10:35;;;;;;;0.40;0.40;;;;;;;;;;5045438;28;20294;-78
2023/10/20 08:13:02;;;;;;;0.30;0.30;;;;;;;;;;5043404;28;20474;-78
2023/10/20 08:15:28;;;;;;;0.70;0.50;;;15.40;99.90;;;;;;5046964;28;20020;-79
2023/10/20 08:17:55;;;;;;;0.38;0.30;;;15.20;99.90;;;;;;5044653;28;20040;-79
2023/10/20 08:20:21;;;;;;;0.28;0.28;;;;;;;;;;5044920;28;20520;-79
2023/10/20 08:22:47;;;;;;;2.97;0.30;;;;;;;;;;5041322;28;20087;-80
2023/10/20 08:25:14;;;;;;;1.00;0.32;;;15.30;99.90;;;;;;5048062;28;20032;-80
2023/10/20 08:27:40;;;;;;;0.30;0.30;;;;;;;;;;5048953;28;20548;-80
2023/10/20 08:30:07;;;;;;;2.83;0.50;;;15.40;99.90;;;;;;5044350;28;20509;-79
2023/10/20 08:32:33;;;;;;;0.85;0.40;;;;;;;;;;5044204;28;20061;-80
2023/10/20 08:34:59;;;;;;;0.30;0.30;;;;;;;;;;5050516;28;20136;-80
2023/10/20 08:37:25;;;;;;;0.40;0.40;;;;;;;;;;5045299;28;20120;-79
2023/10/20 08:39:54;;;;;;;0.45;0.30;;;;;;;;;;5044905;28;20539;-80
2023/10/20 08:42:20;;;;;;;1.65;0.50;;;15.60;99.90;;;;;;5044783;28;20102;-81
2023/10/20 08:44:47;;;;;;;0.60;0.60;;;15.60;99.90;;;;;;5045153;28;20512;-83
2023/10/20 08:47:13;;;;;;;0.50;0.40;;;;;;;;;;5052437;28;20027;-83
2023/10/20 08:49:39;;;;;;;0.88;0.70;;;;;;;;;;5048655;28;20072;-80
2023/10/20 08:52:10;;;;;;;1.00;0.70;;;15.80;99.90;;;;;;5048724;28;20124;-81
2023/10/20 08:54:36;;;;;;;1.02;0.43;;;;;;;;;;5044516;28;20032;-80
2023/10/20 08:57:02;;;;;;;0.70;0.70;;;;;;;;;;5048011;28;20510;-81
2023/10/20 08:59:28;;;;;;;0.30;0.30;;;16.10;99.90;;;;;;5047097;28;20071;-81
2023/10/20 09:01:54;;;;;;;0.30;0.30;;;16.20;99.90;;;;;;5051760;28;20033;-80
2023/10/20 09:04:24;;;;;;;0.65;0.40;;;16.30;99.90;;;;;;5047491;28;20017;-80
2023/10/20 09:06:51;;;;;;;0.50;0.50;;;16.30;99.90;;;;;;5057956;28;20028;-80
2023/10/20 09:09:17;;;;;;;0.30;0.30;;;;;;;;;;5050463;28;20536;-81
2023/10/20 09:11:43;;;;;;;2.35;0.77;;;;;;;;;;5048335;28;20033;-81
2023/10/20 09:14:13;;;;;;;0.35;0.35;;;;;;;;;;5044566;28;20524;-81
2023/10/20 09:16:45;;;;;;;0.40;0.40;;;16.50;99.90;;;;;;5051969;28;20028;-79
2023/10/20 09:19:11;;;;;;;0.40;0.40;;;;;;;;;;5044657;28;20033;-81
2023/10/20 09:21:41;;;;;;;1.77;0.70;;;16.90;99.90;;;;;;5057972;28;20511;-80
2023/10/20 09:24:09;;;;;;;3.10;0.63;;;17.20;99.90;;;;;;5041015;28;20052;-80
2023/10/20 09:26:39;;;;;;;0.70;0.70;;;17.80;99.90;;;;;;5047409;28;20043;-81
2023/10/20 09:29:06;;;;;;;0.80;0.80;;;18.30;99.90;;;;;;5047657;28;20044;-81
2023/10/20 09:31:33;;;;;;;0.60;0.60;;;20.10;99.90;;;;;;5053596;28;20584;-81
2023/10/20 09:33:59;;;;;;;1.27;0.55;;;24.50;93.80;;;;;;5047158;28;20782;-80
2023/10/20 09:36:28;;;;;;;0.85;0.77;;;28.10;71.20;;;;;;5058221;28;20040;-81
2023/10/20 09:38:55;;;;;;;0.90;0.90;;;32.90;62.30;;;;;;5048058;28;20100;-81
2023/10/20 09:41:29;;;;;;;0.60;0.60;;;39.50;60.80;;;;;;5052339;28;20025;-81
2023/10/20 09:44:06;;;;;;;0.30;0.30;;;42.60;51.70;;;;;;5046006;28;20482;-81
2023/10/20 09:46:38;;;;;;;;;;;43.30;40.90;;;;;;5053675;28;20678;-80
2023/10/20 09:49:21;;;;;;;0.20;0.20;;;48.80;45.30;;;;;;5057403;28;19908;-80
2023/10/20 09:51:48;;;;;;;0.20;0.20;;;50.60;36.20;;;;;;5049221;28;20039;-79
2023/10/20 09:54:16;;;;;;;0.32;0.13;;;52.00;33.70;;;;;;5041784;28;20521;-80
2023/10/20 09:56:44;;;;;;;0.10;0.10;;;53.10;32.00;;;;;;5056629;28;20180;-80
2023/10/20 09:59:20;;;;;;;0.55;0.10;;;53.90;31.10;;;;;;5052292;28;20099;-80
2023/10/20 10:01:47;;;;;;;0.65;0.30;;;52.40;31.20;;;;;;5051793;28;20117;-80
2023/10/20 10:04:13;;;;;;;0.20;0.20;;;52.80;33.10;;;;;;5048178;28;20020;-79
2023/10/20 10:06:38;;;;;;;;;;;52.40;30.80;;;;;;5053726;28;20126;-79
2023/10/20 10:09:05;;;;;;;0.40;0.20;;;54.10;37.40;;;;;;5047671;28;20436;-78
2023/10/20 10:11:44;;;;;;;0.10;0.10;;;54.70;36.10;;;;;;5058249;28;20023;-78
2023/10/20 10:14:19;;;;;;;0.10;0.10;;;54.40;23.50;;;;;;5039563;28;20150;-79
2023/10/20 10:16:54;;;;;;;1.98;0.20;;;53.40;25.90;;;;;;5047982;28;20110;-79
2023/10/20 10:19:23;;;;;;;0.47;0.20;;;50.50;24.40;;;;;;5045316;28;20076;-81
2023/10/20 10:21:53;;;;;;;1.65;0.15;;;43.30;26.50;;;;;;5047023;28;20028;-80
2023/10/20 10:24:21;;;;;;;3.83;0.63;;;41.90;28.70;;;;;;5038171;28;20725;-79
2023/10/20 10:27:01;;;;;;;1.02;0.20;;;42.80;36.40;;;;;;5046435;28;20029;-78
2023/10/20 10:29:50;;;;;;;3.35;0.63;;;44.80;35.40;;;;;;5047926;28;20490;-79
2023/10/20 10:32:18;;;;;;;0.17;0.10;;;45.20;25.90;;;;;;5043187;28;20151;-79
2023/10/20 10:34:48;;;;;;;0.40;0.28;;;45.00;25.30;;;;;;5051388;28;20024;-81
2023/10/20 10:37:29;;;;;;;0.15;0.10;;;44.70;25.10;;;;;;5061513;28;20446;-79
2023/10/20 10:40:18;;;;;;;0.20;0.20;;;43.90;25.00;;;;;;5058673;28;20160;-78
2023/10/20 10:42:45;;;;;;;0.10;0.10;;;42.50;26.20;;;;;;5065789;28;20094;-79
2023/10/20 10:45:34;;;;;;;0.90;0.20;;;39.10;24.40;;;;;;5055943;28;20579;-79
2023/10/20 10:48:07;;;;;;;0.43;0.30;;;39.80;25.60;;;;;;5043853;28;20033;-78
2023/10/20 10:50:36;;;;;;;0.20;0.10;;;38.90;26.20;;;;;;5039151;28;20546;-79
2023/10/20 10:53:02;;;;;;;0.60;0.20;;;;;;;;;;5040448;28;20604;-79
2023/10/20 10:55:29;;;;;;;0.85;0.20;;;;;;;;;;5044685;28;20025;-79
2023/10/20 10:57:56;;;;;;;0.98;0.20;;;34.30;27.80;;;;;;5045645;28;20498;-79
2023/10/20 11:00:23;;;;;;;0.28;0.20;;;;;;;;;;5048815;28;20499;-79
2023/10/20 11:02:49;;;;;;;0.20;0.20;;;;;;;;;;5036977;28;20044;-79
2023/10/20 11:05:16;;;;;;;0.28;0.28;;;31.10;30.60;;;;;;5042721;28;20060;-79
2023/10/20 11:07:59;;;;;;;0.57;0.20;;;30.20;34.50;;;;;;5055278;28;20021;-79
2023/10/20 11:10:28;;;;;;;1.17;0.10;;;29.50;31.70;;;;;;5044134;28;20034;-79
2023/10/20 11:12:57;;;;;;;0.13;0.13;;;29.00;32.70;;;;;;5038046;28;20045;-79
2023/10/20 11:15:28;;;;;;;0.43;0.20;;;28.50;33.30;;;;;;5043666;28;20043;-79
2023/10/20 11:17:57;;;;;;;0.45;0.20;;;28.00;33.40;;;;;;5050983;28;20037;-79
2023/10/20 11:20:23;;;;;;;0.30;0.20;;;;;;;;;;5046660;28;20024;-79
2023/10/20 11:22:57;;;;;;;0.73;0.20;;;27.50;34.40;;;;;;5037965;28;20426;-79
2023/10/20 11:25:23;;;;;;;0.63;0.20;;;27.30;47.00;;;;;;5043660;28;20020;-79
2023/10/20 11:27:56;;;;;;;0.30;0.30;;;;;;;;;;5050106;28;20155;-79
2023/10/20 11:30:26;;;;;;;2.25;0.40;;;26.80;35.10;;;;;;5047368;28;20033;-79
2023/10/20 11:32:55;;;;;;;0.43;0.30;;;26.00;35.00;;;;;;5035899;28;20091;-79
2023/10/20 11:35:24;;;;;;;3.63;0.30;;;25.00;50.90;;;;;;5038992;28;20653;-78
2023/10/20 11:37:50;;;;;;;4.28;0.30;;;;;;;;;;5051171;28;20047;-79
2023/10/20 11:40:16;;;;;;;0.38;0.20;;;;;;;;;;5046094;28;20094;-79
2023/10/20 11:42:42;;;;;;;0.57;0.25;;;;;;;;;;5042242;28;20029;-80
2023/10/20 11:45:10;;;;;;;0.90;0.38;;;25.10;36.80;;;;;;5045768;28;20021;-79
2023/10/20 11:47:36;;;;;;;0.73;0.50;;;;;;;;;;5045234;28;20025;-80
2023/10/20 11:50:02;;;;;;;0.65;0.10;;;;;;;;;;5044310;28;20064;-81
2023/10/20 11:52:30;;;;;;;0.73;0.30;;;;;;;;;;5042501;28;20031;-81
2023/10/20 11:54:56;;;;;;;0.47;0.20;;;;;;;;;;5059136;28;20112;-80
2023/10/20 11:57:22;;;;;;;0.43;0.20;;;;;;;;;;5051355;28;20033;-80
2023/10/20 11:59:48;;;;;;;0.50;0.50;;;;;;;;;;5056793;28;20035;-82
2023/10/20 12:02:14;;;;;;;0.20;0.20;;;;;;;;;;5048393;28;20067;-80
2023/10/20 12:04:40;;;;;;;0.47;0.32;;;;;;;;;;5053500;28;20062;-82
2023/10/20 12:07:06;;;;;;;0.80;0.50;;;;;;;;;;5048190;28;20449;-82
2023/10/20 12:09:33;;;;;;;0.30;0.30;;;;;;;;;;5045099;28;20065;-82
2023/10/20 12:11:59;;;;;;;0.55;0.20;;;;;;;;;;5051015;28;20029;-81
2023/10/20 12:14:26;;;;;;;0.20;0.20;;;;;;;;;;5043688;28;20090;-81
2023/10/20 12:16:53;;;;;;;0.63;0.32;;;;;;;;;;5052798;28;20119;-80
2023/10/20 12:19:19;;;;;;;0.47;0.38;;;;;;;;;;5056518;28;20770;-81
2023/10/20 12:21:45;;;;;;;0.70;0.30;;;;;;;;;;5050597;28;20091;-80
2023/10/20 12:24:11;;;;;;;0.60;0.40;;;;;;;;;;5040581;28;20110;-81
2023/10/20 12:26:37;;;;;;;0.75;0.40;;;;;;;;;;5051134;28;20525;-80
2023/10/20 12:29:04;;;;;;;0.17;0.17;;;;;;;;;;5047128;28;20426;-80
2023/10/20 12:31:30;;;;;;;0.73;0.30;;;;;;;;;;5048165;28;20466;-80
2023/10/20 12:33:56;;;;;;;0.35;0.30;;;;;;;;;;5040282;28;20037;-80
2023/10/20 12:36:22;;;;;;;0.20;0.20;;;;;;;;;;5057566;28;20393;-80
2023/10/20 12:38:48;;;;;;;0.80;0.40;;;22.10;56.80;;;;;;5048925;28;20024;-80
2023/10/20 12:41:14;;;;;;;0.45;0.30;;;21.90;40.90;;;;;;5047788;28;20481;-80
2023/10/20 12:43:41;;;;;;;0.90;0.52;;;21.80;41.40;;;;;;5046354;28;20020;-80
2023/10/20 12:46:07;;;;;;;0.20;0.20;;;;;;;;;;5057678;28;20033;-83
2023/10/20 12:48:33;;;;;;;1.40;0.85;;;;;;;;;;5054418;28;20541;-84
2023/10/20 12:51:19;;;;;;;0.20;0.20;;;20.60;43.10;;;;;;5053814;28;20035;-80
2023/10/20 12:53:45;;;;;;;0.75;0.35;;;;;;;;;;5043554;28;20017;-80
2023/10/20 12:56:11;;;;;;;0.47;0.30;;;;;;;;;;5048362;28;20036;-82
2023/10/20 12:58:41;;;;;;;0.20;0.20;;;;;;;;;;5050887;28;20021;-81
2023/10/20 13:01:07;;;;;;;1.02;0.45;;;;;;;;;;5047666;28;20517;-82
2023/10/20 13:03:33;;;;;;;0.30;0.30;;;;;;;;;;5042292;28;20035;-81
2023/10/20 13:05:59;;;;;;;0.30;0.30;;;;;;;;;;5048307;28;20757;-80
2023/10/20 13:08:25;;;;;;;0.60;0.60;;;;;;;;;;5046110;28;20490;-84
2023/10/20 13:10:51;;;;;;;0.35;0.35;;;;;;;;;;5045983;28;20048;-81
2023/10/20 13:13:18;;;;;;;0.30;0.30;;;;;;;;;;5048507;28;20080;-80
2023/10/20 13:15:44;;;;;;;1.37;0.40;;;;;;;;;;5049572;28;20036;-82
2023/10/20 13:18:12;;;;;;;0.35;0.35;;;;;;;;;;5049613;28;20025;-81
2023/10/20 13:20:39;;;;;;;0.50;0.40;;;;;;;;;;5049359;28;20112;-81
2023/10/20 13:23:05;;;;;;;0.30;0.30;;;;;;;;;;5047527;28;20032;-82
2023/10/20 13:25:31;;;;;;;1.30;0.30;;;;;;;;;;5057345;28;20017;-81
2023/10/20 13:27:59;;;;;;;0.20;0.20;;;;;;;;;;5052092;28;20107;-80
2023/10/20 13:30:25;;;;;;;;;;;20.10;47.40;;;;;;5049165;28;20021;-80
2023/10/20 13:32:51;;;;;;;0.52;0.30;;;;;;;;;;5047634;28;19924;-81
2023/10/20 13:35:17;;;;;;;0.30;0.30;;;19.60;67.40;;;;;;5047516;28;20069;-80
2023/10/20 13:37:44;;;;;;;0.35;0.35;;;19.70;57.70;;;;;;5053737;28;20033;-80
2023/10/20 13:40:10;;;;;;;1.50;0.40;;;;;;;;;;5048264;28;20029;-81
2023/10/20 13:42:36;;;;;;;2.23;0.50;;;;;;;;;;5049647;28;20021;-82
2023/10/20 13:45:03;;;;;;;0.40;0.40;;;;;;;;;;5047821;28;20505;-82
2023/10/20 13:47:30;;;;;;;1.45;0.63;;;;;;;;;;5055710;28;20029;-81
2023/10/20 13:49:56;;;;;;;0.40;0.40;;;18.80;65.90;;;;;;5056902;28;20033;-81
2023/10/20 13:52:22;;;;;;;1.25;0.45;;;;;;;;;;5047456;28;20043;-82
2023/10/20 13:54:48;;;;;;;1.27;0.45;;;;;;;;;;5045740;28;20029;-82
2023/10/20 13:57:15;;;;;;;3.50;0.40;;;;;;;;;;5057964;28;20441;-82
2023/10/20 13:59:41;;;;;;;4.57;0.50;;;;;;;;;;5059240;28;20070;-80
2023/10/20 14:02:07;;;;;;;0.45;0.45;;;;;;;;;;5054922;28;20051;-82
2023/10/20 14:04:33;;;;;;;1.95;0.50;;;;;;;;;;5054992;28;20096;-79
2023/10/20 14:06:59;;;;;;;0.50;0.43;;;;;;;;;;5056981;28;20028;-80
2023/10/20 14:09:26;;;;;;;0.30;0.30;;;;;;;;;;5047412;28;20021;-80
2023/10/20 14:11:52;;;;;;;1.25;0.45;;;;;;;;;;5048354;28;20029;-81
2023/10/20 14:14:18;;;;;;;0.40;0.40;;;;;;;;;;5054100;28;20070;-80
2023/10/20 14:16:44;;;;;;;0.45;0.45;;;;;;;;;;5051752;28;20037;-82
2023/10/20 14:19:10;;;;;;;0.32;0.32;;;;;;;;;;5051383;28;20024;-82
2023/10/20 14:21:36;;;;;;;1.05;0.45;;;;;;;;;;5045372;28;20479;-80
2023/10/20 14:24:02;;;;;;;1.33;0.45;;;;;;;;;;5051229;28;20447;-81
2023/10/20 14:26:28;;;;;;;0.50;0.50;;;;;;;;;;5048337;28;20020;-80
2023/10/20 14:28:54;;;;;;;0.35;0.35;;;;;;;;;;5056944;28;20028;-80
2023/10/20 14:31:20;;;;;;;3.25;0.52;;;;;;;;;;5048121;28;20104;-81
2023/10/20 14:33:47;;;;;;;1.55;0.40;;;;;;;;;;5050393;28;20052;-81
2023/10/20 14:36:15;;;;;;;0.52;0.40;;;17.30;60.60;;;;;;5053114;28;20110;-79